Date,TemperatureHighF,TemperatureAvgF,TemperatureLowF,DewpointHighF,DewpointAvgF,DewpointLowF,HumidityHigh,HumidityAvg,HumidityLow,PressureMaxIn,PressureMinIn,WindSpeedMaxMPH,WindSpeedAvgMPH,GustSpeedMaxMPH,PrecipitationSumIn
2012-1-1,75,71,68,64,62,59,79,73,65,30.37,30.27,19,13,27,0.00
2012-1-2,78,72,68,65,63,61,84,74,58,30.42,30.33,12,7,19,0.00
2012-1-3,80,73,68,65,63,59,81,70,52,30.48,30.37,21,12,33,0.00
2012-1-4,78,73,70,68,64,61,86,75,62,30.51,30.43,23,17,34,0.00
2012-1-5,76,72,68,63,60,55,77,66,57,30.51,30.38,26,21,43,0.00
2012-1-6,76,71,68,59,57,54,67,61,54,30.45,30.35,26,20,41,0.00
2012-1-7,76,72,69,61,56,54,72,59,48,30.42,30.35,20,14,30,0.00
2012-1-8,77,71,66,64,60,57,74,70,63,30.41,30.33,17,12,26,0.00
2012-1-9,77,71,67,64,61,57,75,70,61,30.42,30.33,21,14,31,0.00
2012-1-10,77,71,66,63,60,57,75,68,59,30.40,30.29,22,13,34,0.00
2012-1-11,76,70,66,63,60,57,86,72,60,30.35,30.26,18,13,26,0.00
2012-1-12,77,70,67,63,60,58,80,72,58,30.30,30.18,12,8,21,0.00
2012-1-13,78,70,65,62,59,55,82,69,48,30.22,30.15,12,8,23,0.00
2012-1-14,78,70,64,61,58,55,77,67,51,30.27,30.17,9,5,13,0.00
2012-1-15,78,73,70,69,65,60,87,77,65,30.33,30.17,14,10,27,0.00
2012-1-16,79,74,71,70,68,65,88,83,66,30.35,30.25,13,10,21,0.00
2012-1-17,78,73,71,69,66,65,87,79,68,30.36,30.24,16,10,28,0.00
2012-1-18,78,73,69,69,66,63,88,79,68,30.39,30.28,13,8,28,0.00
2012-1-19,77,72,67,67,64,61,86,76,58,30.44,30.36,20,11,32,0.00
2012-1-20,79,74,69,64,62,58,79,67,50,30.45,30.35,24,18,37,0.00
2012-1-21,76,72,69,63,62,58,77,70,62,30.47,30.35,27,22,43,0.00
2012-1-22,77,72,69,63,60,57,76,67,50,30.39,30.25,33,24,50,0.00
2012-1-23,78,72,69,65,62,60,81,71,58,30.37,30.28,19,12,32,0.00
2012-1-24,80,72,66,64,61,57,85,69,49,30.35,30.28,18,9,33,0.00
2012-1-25,79,73,69,64,62,60,76,69,55,30.34,30.26,18,10,32,0.00
2012-1-26,78,72,66,64,63,59,81,72,59,30.31,30.20,13,6,21,0.00
2012-1-27,80,72,67,65,62,57,81,71,46,30.36,30.22,13,7,23,0.00
2012-1-28,77,72,68,63,59,55,75,65,49,30.42,30.31,27,19,42,0.00
2012-1-29,77,72,68,63,60,57,78,68,54,30.45,30.36,25,21,41,0.00
2012-1-30,76,71,68,62,60,58,73,68,59,30.42,30.30,25,21,41,0.00
2012-1-31,76,71,67,61,58,55,77,64,49,30.33,30.23,22,18,35,0.00
2012-2-1,77,71,67,57,55,52,66,57,45,30.36,30.24,19,13,30,0.00
2012-2-2,75,71,66,59,55,50,74,58,49,30.36,30.28,24,13,38,0.00
2012-2-3,78,71,64,63,58,52,76,65,41,30.34,30.20,13,8,23,0.00
2012-2-4,78,71,66,62,59,55,78,66,57,30.23,30.11,16,12,28,0.00
2012-2-5,79,72,67,64,63,60,83,73,56,30.22,30.11,19,12,29,0.00
2012-2-6,78,72,66,65,62,59,84,73,61,30.25,30.17,14,8,21,0.00
2012-2-7,75,70,65,66,61,56,89,73,57,30.24,30.16,19,15,40,0.00
2012-2-8,74,68,64,63,53,45,84,59,44,30.40,30.22,25,19,36,0.00
2012-2-9,74,68,63,56,52,49,65,57,49,30.51,30.40,22,16,34,0.00
2012-2-10,74,71,66,60,56,52,71,61,52,30.55,30.43,26,19,38,0.00
2012-2-11,76,71,66,62,60,57,74,68,60,30.55,30.45,23,17,37,0.00
2012-2-12,75,71,67,65,62,60,87,74,65,30.52,30.41,28,21,44,0.00
2012-2-13,76,71,68,64,61,58,86,70,59,30.50,30.35,28,21,45,0.00
2012-2-14,76,71,68,64,63,59,88,75,60,30.44,30.37,25,18,39,0.00
2012-2-15,76,72,68,63,61,59,79,70,59,30.49,30.38,29,18,42,0.00
2012-2-16,75,71,68,63,60,56,78,69,62,30.50,30.40,28,21,44,0.00
2012-2-17,76,70,66,61,60,58,84,70,58,30.49,30.38,31,25,49,0.00
2012-2-18,76,70,66,62,60,57,84,70,59,30.47,30.36,28,25,47,0.00
2012-2-19,76,71,67,62,60,52,82,68,49,30.41,30.28,28,25,45,0.00
2012-2-20,77,72,69,61,57,52,73,60,49,30.41,30.29,29,25,48,0.00
2012-2-21,73,70,69,64,60,58,77,72,65,30.44,30.32,31,25,49,0.00
2012-2-22,76,71,68,62,60,57,79,69,60,30.38,30.27,31,26,46,0.00
2012-2-23,76,71,67,63,62,59,83,73,63,30.36,30.21,24,19,36,0.00
2012-2-24,76,71,67,66,62,59,80,74,66,30.31,30.22,20,15,32,0.00
2012-2-25,77,72,69,65,62,59,79,71,63,30.34,30.22,24,20,40,0.00
2012-2-26,75,71,68,64,61,58,82,71,59,30.37,30.24,28,24,47,0.00
2012-2-27,76,71,68,62,60,58,75,70,59,30.38,30.28,28,23,44,0.00
2012-2-28,76,70,67,62,60,58,82,70,55,30.38,30.30,27,24,47,0.00
2012-2-29,74,70,66,62,60,59,83,72,63,30.38,30.30,28,24,45,0.00
2012-3-1,75,70,67,62,60,58,82,71,58,30.39,30.29,26,22,40,0.00
2012-3-2,76,71,67,64,62,60,88,75,63,30.40,30.31,22,19,37,0.00
2012-3-3,74,69,65,67,63,61,92,83,73,30.38,30.26,21,17,34,0.00
2012-3-4,75,70,67,64,62,60,81,75,66,30.31,30.18,20,16,29,0.00
2012-3-5,72,69,67,66,63,60,86,80,73,30.25,30.13,19,14,33,0.00
2012-3-6,72,70,64,66,63,57,86,80,70,30.37,30.19,23,9,33,0.00
2012-3-7,76,70,64,65,62,57,83,76,67,30.37,30.24,20,12,30,0.00
2012-3-8,75,70,66,65,62,58,87,75,57,30.32,30.25,25,16,45,0.00
2012-3-9,79,73,68,64,58,53,81,62,44,30.35,30.24,31,24,52,0.00
2012-3-10,75,71,68,64,59,-100,79,69,63,30.40,30.29,33,27,51,0.00
2012-3-11,76,71,68,62,60,55,77,67,55,30.42,30.32,30,-57,50,0.00
2012-3-12,73,70,67,65,62,56,89,76,67,30.43,30.35,24,16,42,0.00
2012-3-13,76,70,67,60,57,53,73,64,48,30.40,30.30,22,14,36,0.00
2012-3-14,75,70,64,59,56,54,72,63,55,30.40,30.30,23,15,38,0.00
2012-3-15,76,70,67,60,58,52,74,65,56,30.44,30.35,26,20,41,0.00
2012-3-16,76,71,68,62,60,58,74,67,58,30.48,30.38,29,25,48,0.00
2012-3-17,76,71,68,63,60,55,79,67,54,30.47,30.37,28,24,44,0.00
2012-3-18,76,70,67,64,61,58,84,74,62,30.40,30.32,29,24,47,0.00
2012-3-19,76,70,66,64,60,57,88,72,55,30.38,30.27,25,19,36,0.00
2012-3-20,76,71,68,64,60,-100,78,70,63,30.41,30.29,21,17,32,0.00
2012-3-21,73,69,67,63,60,57,80,73,68,30.41,30.33,22,16,37,0.00
2012-3-22,76,69,68,62,57,-100,81,69,57,30.40,30.29,28,9,43,0.00
2012-3-23,76,71,67,62,60,58,77,69,55,30.36,30.28,28,24,46,0.00
2012-3-24,75,70,65,62,60,59,83,73,61,30.39,30.32,30,25,48,0.00
2012-3-25,76,71,67,61,59,57,78,67,57,30.39,30.31,24,20,38,0.00
2012-3-26,77,70,66,59,56,53,74,62,46,30.40,30.31,21,14,38,0.00
2012-3-27,75,70,64,60,57,54,73,65,55,30.39,30.30,19,12,33,0.00
2012-3-28,75,70,66,59,56,51,69,61,52,30.39,30.31,24,16,36,0.00
2012-3-29,74,70,66,59,57,51,68,64,58,30.42,30.32,20,15,33,0.00
2012-3-30,76,71,66,59,55,49,71,59,45,30.40,30.32,30,20,49,0.00
2012-3-31,76,71,68,64,58,52,83,65,54,30.44,30.29,32,26,50,0.00
2012-4-1,75,71,68,66,63,60,83,75,66,30.45,30.34,21,16,36,0.00
2012-4-2,76,71,68,63,62,61,80,73,62,30.42,30.29,18,12,27,0.00
2012-4-3,77,71,68,64,62,59,79,72,62,30.38,30.27,21,15,34,0.00
2012-4-4,77,71,67,65,63,61,85,76,66,30.35,30.26,26,20,40,0.00
2012-4-5,75,70,68,63,60,58,79,70,62,30.35,30.25,22,19,36,0.00
2012-4-6,76,71,67,64,62,58,79,73,66,30.40,30.28,24,18,36,0.00
2012-4-7,75,71,68,63,61,58,78,70,61,30.44,30.34,22,17,37,0.00
2012-4-8,77,71,66,61,59,56,79,66,55,30.44,30.35,22,15,36,0.00
2012-4-9,76,70,66,62,58,55,80,66,54,30.44,30.36,23,16,39,0.00
2012-4-10,74,70,66,61,57,55,72,65,58,30.42,30.34,25,20,40,0.00
2012-4-11,75,71,67,62,59,54,76,68,59,30.44,30.34,25,19,37,0.00
2012-4-12,75,71,68,64,61,58,79,71,63,30.46,30.37,21,15,33,0.00
2012-4-13,77,72,68,65,63,60,81,73,63,30.46,30.38,19,13,28,0.00
2012-4-14,77,72,68,65,62,61,80,72,57,30.48,30.39,20,14,31,0.00
2012-4-15,76,71,69,65,62,59,78,72,65,30.47,30.37,24,18,39,0.00
2012-4-16,79,72,68,61,58,56,73,62,45,30.44,30.35,29,24,45,0.00
2012-4-17,77,72,68,61,58,54,74,61,46,30.45,30.33,29,24,45,0.00
2012-4-18,76,72,68,62,58,53,74,63,53,30.43,30.34,28,24,44,0.00
2012-4-19,77,72,68,62,59,54,73,65,56,30.43,30.35,24,19,37,0.00
2012-4-20,79,71,66,59,58,56,74,64,51,30.40,30.29,20,13,30,0.00
2012-4-21,77,71,65,60,58,55,76,64,52,30.36,30.26,20,12,33,0.00
2012-4-22,77,71,65,61,58,54,74,64,53,30.38,30.26,23,15,38,0.00
2012-4-23,77,71,66,62,59,55,82,67,55,30.43,30.32,26,21,46,0.00
2012-4-24,75,70,68,59,58,56,71,64,55,30.45,30.35,27,20,45,0.00
2012-4-25,75,70,66,62,59,56,77,68,59,30.41,30.32,28,21,42,0.00
2012-4-26,75,71,67,63,61,60,85,72,62,30.40,30.32,22,18,37,0.00
2012-4-27,77,72,68,64,62,59,78,71,60,30.42,30.32,25,20,40,0.00
2012-4-28,78,72,68,63,62,59,79,70,58,30.43,30.33,30,23,45,0.00
2012-4-29,77,72,69,65,62,60,81,70,59,30.43,30.35,29,23,48,0.00
2012-4-30,77,72,67,63,60,58,77,67,56,30.43,30.32,28,24,49,0.00
2012-5-1,78,71,68,64,61,59,78,71,62,30.41,30.31,28,22,43,0.00
2012-5-2,77,72,68,62,59,56,76,65,51,30.39,30.29,26,18,42,0.00
2012-5-3,76,71,68,63,60,56,78,69,62,30.39,30.31,24,18,44,0.00
2012-5-4,77,72,68,64,61,58,80,69,60,30.40,30.31,26,20,40,0.00
2012-5-5,77,72,68,63,60,57,77,66,54,30.40,30.31,28,20,43,0.00
2012-5-6,77,72,68,65,62,59,84,69,59,30.40,30.32,30,20,45,0.00
2012-5-7,78,73,69,64,61,57,81,67,52,30.43,30.35,24,19,39,0.00
2012-5-8,77,72,69,62,59,56,75,64,52,30.46,30.38,21,16,35,0.00
2012-5-9,77,71,66,61,58,54,69,62,54,30.40,30.33,24,13,38,0.00
2012-5-10,76,72,66,62,58,53,69,63,55,30.38,30.30,22,14,32,0.00
2012-5-11,76,71,66,61,58,55,72,63,53,30.35,30.27,22,15,35,0.00
2012-5-12,76,71,67,61,57,54,72,62,56,30.38,30.28,19,12,28,0.00
2012-5-13,78,72,65,59,56,52,70,59,43,30.37,30.28,12,9,25,0.00
2012-5-14,77,72,65,60,58,55,72,62,53,30.34,30.26,11,8,21,0.00
2012-5-15,79,73,69,62,59,56,72,63,49,30.36,30.26,15,10,25,0.00
2012-5-16,79,73,68,65,62,57,75,68,60,30.40,30.29,21,15,36,0.00
2012-5-17,78,73,69,64,61,57,77,66,57,30.42,30.34,22,19,40,0.00
2012-5-18,78,74,70,65,62,60,78,68,60,30.41,30.32,24,18,35,0.00
2012-5-19,78,73,70,65,62,58,76,69,61,30.39,30.31,20,15,31,0.00
2012-5-20,78,73,68,66,62,57,78,69,58,30.41,30.30,22,16,35,0.00
2012-5-21,79,74,70,65,62,58,78,68,57,30.43,30.35,25,19,39,0.00
2012-5-22,79,74,70,62,60,57,71,61,50,30.43,30.36,27,23,46,0.00
2012-5-23,78,73,70,64,61,57,74,66,58,30.40,30.31,30,25,48,0.00
2012-5-24,79,74,70,65,63,59,81,68,54,30.40,30.34,28,25,45,0.00
2012-5-25,77,74,70,65,61,58,81,66,57,30.38,30.31,29,24,46,0.00
2012-5-26,79,73,69,65,62,58,83,69,48,30.38,30.31,26,23,43,0.00
2012-5-27,78,73,69,65,63,61,84,73,57,30.38,30.30,29,25,48,0.00
2012-5-28,78,73,70,63,60,54,74,65,52,30.42,30.33,29,25,48,0.00
2012-5-29,77,72,69,62,59,56,71,64,54,30.44,30.35,34,25,53,0.00
2012-5-30,78,72,69,62,60,57,76,65,54,30.43,30.36,29,21,43,0.00
2012-5-31,76,72,68,65,61,59,80,70,59,30.44,30.38,23,16,37,0.00
2012-6-1,76,72,68,64,61,56,77,69,61,30.45,30.36,25,17,40,0.00
2012-6-2,77,72,68,62,60,58,72,65,57,30.45,30.37,20,13,35,0.00
2012-6-3,78,73,68,62,59,55,72,62,49,30.40,30.33,21,14,38,0.00
2012-6-4,78,73,69,64,62,58,76,69,60,30.39,30.32,23,18,38,0.00
2012-6-5,78,74,70,66,64,62,81,72,62,30.39,30.33,25,21,40,0.00
2012-6-6,78,73,69,65,63,61,85,72,57,30.38,30.32,26,21,42,0.00
2012-6-7,78,72,69,65,62,59,83,71,59,30.38,30.30,28,22,44,0.00
2012-6-8,78,73,69,66,63,57,85,72,60,30.36,30.29,25,21,38,0.00
2012-6-9,78,73,68,65,62,57,83,69,51,30.34,30.25,27,21,41,0.00
2012-6-10,78,73,69,65,63,59,84,71,53,30.34,30.28,21,17,32,0.00
2012-6-11,79,72,68,67,64,62,84,75,61,30.37,30.28,19,14,28,0.00
2012-6-12,79,73,69,65,63,60,82,71,56,30.35,30.30,17,14,29,0.00
2012-6-13,78,74,70,68,65,62,83,74,66,30.36,30.28,20,16,31,0.00
2012-6-14,79,74,70,66,64,61,78,70,59,30.37,30.30,22,17,34,0.00
2012-6-15,78,74,69,65,63,59,79,70,63,30.41,30.33,22,16,34,0.00
2012-6-16,78,73,70,65,61,55,76,67,52,30.42,30.32,31,20,45,0.00
2012-6-17,79,75,71,63,61,54,74,62,49,30.44,30.37,31,22,47,0.00
2012-6-18,77,73,70,63,60,56,70,63,57,30.43,30.30,24,16,43,0.00
2012-6-19,79,73,68,67,63,58,78,71,63,30.30,30.22,21,13,32,0.00
2012-6-20,74,72,69,67,65,63,88,81,75,30.34,30.24,19,15,36,0.00
2012-6-21,77,73,69,67,64,62,82,75,63,30.38,30.30,20,16,33,0.00
2012-6-22,78,73,70,67,66,63,83,76,67,30.39,30.30,21,17,35,0.00
2012-6-23,78,72,69,68,65,62,88,78,64,30.39,30.33,24,18,43,0.00
2012-6-24,78,73,70,65,63,61,78,70,58,30.41,30.34,29,23,45,0.00
2012-6-25,79,73,70,66,64,60,80,72,64,30.44,30.37,28,22,45,0.00
2012-6-26,79,73,68,64,62,60,79,69,56,30.43,30.35,18,11,35,0.00
2012-6-27,79,73,68,63,61,57,76,65,48,30.36,30.30,23,14,42,0.00
2012-6-28,78,72,69,66,63,60,77,73,64,30.40,30.28,25,19,39,0.00
2012-6-29,79,74,70,64,62,59,74,66,51,30.43,30.36,23,18,42,0.00
2012-6-30,78,74,70,65,63,60,77,69,60,30.37,30.28,22,17,35,0.00
2012-7-1,79,75,70,64,61,57,77,63,52,30.32,30.25,21,17,34,0.00
2012-7-2,79,74,70,64,62,60,76,68,58,30.36,30.27,24,19,39,0.00
2012-7-3,78,72,67,66,64,61,89,75,62,30.38,30.32,23,18,36,0.00
2012-7-4,79,74,69,67,64,60,82,72,61,30.36,30.24,24,18,38,0.00
2012-7-5,78,74,71,67,65,64,81,73,62,30.31,30.25,29,24,45,0.00
2012-7-6,79,74,71,66,64,63,80,71,62,30.37,30.26,30,23,43,0.00
2012-7-7,77,73,68,67,64,62,87,74,63,30.36,30.30,29,24,48,0.00
2012-7-8,78,73,69,66,62,60,83,70,55,30.37,30.29,27,22,43,0.00
2012-7-9,78,73,68,64,62,60,79,68,55,30.38,30.31,27,19,41,0.00
2012-7-10,78,74,69,64,62,60,76,68,58,30.38,30.30,26,16,40,0.00
2012-7-11,80,74,70,63,61,58,71,63,52,30.37,30.30,20,16,34,0.00
2012-7-12,80,74,70,66,62,58,76,67,54,30.33,30.27,20,13,30,0.00
2012-7-13,79,75,72,67,65,63,79,71,65,30.30,30.24,29,24,50,0.00
2012-7-14,79,75,72,65,63,60,76,68,59,30.37,30.24,27,21,45,0.00
2012-7-15,78,74,71,65,63,58,76,68,60,30.36,30.29,24,17,40,0.00
2012-7-16,78,74,71,68,65,62,80,75,69,30.35,30.28,23,19,38,0.00
2012-7-17,81,75,71,67,65,62,81,72,58,30.32,30.24,22,19,38,0.00
2012-7-18,80,75,71,67,65,63,82,73,64,30.35,30.27,25,20,40,0.00
2012-7-19,79,74,70,64,62,60,76,66,53,30.37,30.30,21,14,34,0.00
2012-7-20,81,74,69,66,62,60,78,66,53,30.36,30.30,17,11,26,0.00
2012-7-21,79,74,69,66,63,59,75,69,63,30.35,30.29,16,13,29,0.00
2012-7-22,81,75,71,68,64,62,78,71,55,30.36,30.29,20,15,31,0.00
2012-7-23,79,75,71,66,64,62,80,69,58,30.38,30.31,22,19,34,0.00
2012-7-24,79,74,71,67,63,60,79,69,59,30.36,30.27,24,20,43,0.00
2012-7-25,79,74,71,63,61,58,74,65,55,30.35,30.26,24,20,43,0.00
2012-7-26,78,74,70,64,62,59,73,66,54,30.33,30.26,25,20,39,0.00
2012-7-27,78,74,70,64,62,60,74,68,58,30.34,30.27,23,17,36,0.00
2012-7-28,80,74,71,67,65,63,81,72,63,30.36,30.29,23,18,34,0.00
2012-7-29,79,74,69,68,66,64,87,77,65,30.37,30.29,23,20,41,0.00
2012-7-30,79,75,71,68,66,63,83,74,64,30.36,30.29,29,22,45,0.00
2012-7-31,79,75,71,68,66,63,83,72,63,30.38,30.29,27,23,41,0.00
2012-8-1,78,74,72,67,65,63,80,73,65,30.37,30.31,22,20,37,0.00
2012-8-2,80,76,71,66,64,63,81,69,60,30.38,30.31,24,20,38,0.00
2012-8-3,80,75,71,66,64,62,77,69,58,30.38,30.32,23,20,37,0.00
2012-8-4,80,75,71,66,64,62,76,68,58,30.38,30.30,22,18,32,0.00
2012-8-5,79,75,72,67,64,61,77,70,62,30.37,30.30,22,17,32,0.00
2012-8-6,80,74,69,67,64,62,84,73,60,30.37,30.29,23,18,37,0.00
2012-8-7,80,74,70,64,63,61,77,68,58,30.36,30.28,26,21,42,0.00
2012-8-8,79,74,70,66,63,60,77,68,55,30.39,30.29,27,21,42,0.00
2012-8-9,79,75,72,69,66,62,79,73,64,30.43,30.34,23,18,37,0.00
2012-8-10,79,74,70,65,63,61,78,67,56,30.40,30.29,20,12,32,0.00
2012-8-11,79,74,71,66,64,62,82,72,59,30.34,30.25,21,16,35,0.00
2012-8-12,81,75,71,67,64,62,82,71,60,30.35,30.25,27,20,40,0.00
2012-8-13,78,75,72,68,66,65,81,76,69,30.37,30.29,22,16,35,0.00
2012-8-14,79,75,72,66,64,59,81,68,52,30.36,30.26,27,17,40,0.00
2012-8-15,81,75,71,66,63,60,74,67,54,30.32,30.23,27,20,42,0.00
2012-8-16,78,74,71,66,63,60,74,68,57,30.37,30.26,23,17,37,0.00
2012-8-17,80,75,70,64,62,59,74,65,53,30.36,30.30,21,14,32,0.00
2012-8-18,78,73,69,68,63,59,82,72,60,30.34,30.24,20,10,30,0.00
2012-8-19,79,74,69,68,66,62,85,75,58,30.32,30.25,24,17,38,0.00
2012-8-20,80,76,72,70,67,65,84,76,64,30.37,30.29,24,17,42,0.00
2012-8-21,79,75,71,68,66,63,82,73,62,30.41,30.34,19,12,31,0.00
2012-8-22,80,75,71,67,65,63,81,71,60,30.39,30.32,21,15,32,0.00
2012-8-23,80,75,72,68,66,63,79,72,64,30.38,30.30,24,19,36,0.00
2012-8-24,80,75,72,66,65,63,79,71,60,30.39,30.32,24,19,38,0.00
2012-8-25,80,76,72,65,63,58,76,66,48,30.40,30.32,23,18,38,0.00
2012-8-26,80,74,71,65,62,60,77,68,56,30.37,30.30,23,15,36,0.00
2012-8-27,79,74,70,67,64,61,77,71,61,30.36,30.28,19,13,32,0.00
2012-8-28,79,74,70,66,63,61,80,69,58,30.35,30.28,24,17,38,0.00
2012-8-29,80,75,71,68,65,63,80,72,61,30.35,30.27,23,19,41,0.00
2012-8-30,79,75,71,66,64,62,75,70,62,30.36,30.28,24,20,37,0.00
2012-8-31,80,74,70,68,64,61,82,71,62,30.39,30.30,25,21,40,0.00
2012-9-1,79,75,71,67,63,60,74,67,59,30.39,30.32,24,19,39,0.00
2012-9-2,78,74,69,65,63,60,79,69,56,30.39,30.30,28,20,45,0.00
2012-9-3,79,75,71,66,63,60,76,67,56,30.37,30.28,27,24,45,0.00
2012-9-4,80,75,71,64,62,60,75,65,54,30.39,30.30,26,22,44,0.00
2012-9-5,79,75,71,67,64,62,75,69,60,30.40,30.30,23,17,39,0.00
2012-9-6,82,75,70,67,64,60,77,69,54,30.34,30.24,23,16,34,0.00
2012-9-7,80,75,70,67,64,62,79,71,59,30.32,30.24,23,17,37,0.00
2012-9-8,81,76,71,68,65,63,80,71,58,30.39,30.29,20,14,31,0.00
2012-9-9,80,75,72,68,66,64,81,75,64,30.41,30.33,24,19,39,0.00
2012-9-10,79,71,71,65,56,-100,79,66,60,30.39,30.29,26,-30,41,0.00
2012-9-11,79,74,71,64,62,60,75,67,58,30.35,30.26,25,20,39,0.00
2012-9-12,79,74,71,65,62,59,77,67,59,30.35,30.25,24,18,41,0.00
2012-9-13,79,74,71,66,63,60,76,68,58,30.37,30.28,23,19,38,0.00
2012-9-14,79,74,70,65,62,59,78,67,54,30.37,30.27,23,18,36,0.00
2012-9-15,78,74,69,66,63,61,82,70,58,30.37,30.26,22,15,33,0.00
2012-9-16,80,75,70,65,63,61,75,67,57,30.36,30.28,23,15,36,0.00
2012-9-17,80,74,69,65,62,60,78,67,57,30.34,30.25,24,16,38,0.00
2012-9-18,79,74,68,65,62,59,78,67,52,30.31,30.21,21,16,37,0.00
2012-9-19,79,73,69,67,65,62,86,77,65,30.33,30.26,15,10,26,0.00
2012-9-20,81,75,70,71,68,66,87,78,68,30.36,30.27,11,7,17,0.00
2012-9-21,80,75,72,68,66,64,85,73,64,30.35,30.25,21,15,31,0.00
2012-9-22,79,75,70,67,65,64,85,73,62,30.33,30.25,23,17,36,0.00
2012-9-23,80,75,71,71,68,65,87,78,69,30.34,30.28,25,12,38,0.00
2012-9-24,80,75,71,68,66,63,87,75,65,30.36,30.27,21,15,36,0.00
2012-9-25,79,75,71,67,65,62,81,72,62,30.37,30.27,23,16,36,0.00
2012-9-26,79,75,71,67,65,63,81,72,62,30.38,30.26,24,16,36,0.00
2012-9-27,79,74,70,66,64,62,79,72,60,30.36,30.29,22,12,41,0.00
2012-9-28,80,75,71,68,65,63,80,72,61,30.32,30.22,25,18,41,0.00
2012-9-29,79,75,71,67,65,63,84,72,62,30.33,30.24,22,17,35,0.00
2012-9-30,80,75,71,67,65,63,83,72,57,30.32,30.23,16,12,26,0.00
2012-10-1,79,75,71,68,66,63,83,74,64,30.30,30.21,19,14,27,0.00
2012-10-2,77,74,70,69,67,64,85,79,68,30.30,30.20,17,13,26,0.00
2012-10-3,80,76,73,68,66,65,81,73,67,30.34,30.25,18,14,26,0.00
2012-10-4,79,74,70,68,65,62,78,72,65,30.35,30.27,17,13,26,0.00
2012-10-5,79,74,71,65,64,63,77,70,59,30.32,30.22,18,12,27,0.00
2012-10-6,82,75,70,67,66,63,81,72,59,30.26,30.17,12,7,18,0.00
2012-10-7,81,76,73,69,67,65,81,74,63,30.25,30.16,11,7,19,0.00
2012-10-8,82,76,71,69,67,62,83,73,59,30.30,30.20,10,6,18,0.00
2012-10-9,83,77,71,71,67,62,84,72,56,30.39,30.27,11,6,18,0.00
2012-10-10,81,76,73,71,69,65,87,78,58,30.39,30.30,19,14,31,0.00
2012-10-11,80,76,72,71,68,61,87,76,64,30.40,30.28,23,17,39,0.00
2012-10-12,80,76,73,66,64,61,77,68,58,30.42,30.33,25,20,38,0.00
2012-10-13,83,76,73,68,66,64,82,71,55,30.44,30.35,24,19,40,0.00
2012-10-14,81,76,72,68,66,63,79,71,57,30.42,30.34,26,20,44,0.00
2012-10-15,80,76,72,67,66,62,82,72,55,30.40,30.27,26,18,39,0.00
2012-10-16,79,75,71,68,65,63,81,72,61,30.32,30.24,21,17,34,0.00
2012-10-17,79,75,71,68,66,63,83,73,63,30.30,30.22,21,16,34,0.00
2012-10-18,80,75,71,67,64,60,77,70,63,30.32,30.20,25,17,39,0.00
2012-10-19,80,75,71,65,63,58,80,67,55,30.32,30.23,26,22,43,0.00
2012-10-20,80,75,71,67,64,59,75,68,57,30.30,30.20,26,20,42,0.00
2012-10-21,79,75,72,66,62,60,75,65,56,30.29,30.20,26,20,39,0.00
2012-10-22,80,75,72,65,63,61,73,66,55,30.30,30.19,26,22,40,0.00
2012-10-23,79,75,72,68,66,64,80,73,66,30.29,30.18,23,17,37,0.00
2012-10-24,79,75,73,70,69,66,86,80,73,30.25,30.15,19,12,27,0.00
2012-10-25,79,76,72,69,67,66,84,75,65,30.31,30.20,19,13,30,0.00
2012-10-26,82,76,70,69,66,63,83,73,55,30.38,30.26,12,7,19,0.00
2012-10-27,81,75,72,69,66,63,85,73,63,30.38,30.27,17,12,35,0.00
2012-10-28,79,74,70,66,64,60,77,71,61,30.33,30.25,20,15,33,0.00
2012-10-29,81,75,72,67,63,60,74,67,54,30.37,30.26,23,17,40,0.00
2012-10-30,79,74,70,66,64,61,83,72,63,30.38,30.28,21,16,34,0.00
2012-10-31,79,74,71,65,63,59,80,69,58,30.38,30.27,18,15,33,0.00
2012-11-1,79,74,69,63,60,58,73,63,50,30.34,30.24,16,13,27,0.00
2012-11-2,79,74,70,64,61,58,78,66,54,30.30,30.19,15,11,23,0.00
2012-11-3,81,75,69,65,62,58,74,66,56,30.31,30.24,11,6,24,0.00
2012-11-4,81,75,71,66,64,59,78,68,48,30.31,30.24,14,9,23,0.00
2012-11-5,81,74,68,67,64,60,79,71,60,30.29,30.19,21,11,33,0.00
2012-11-6,79,74,70,67,64,61,81,72,60,30.26,30.17,23,19,38,0.00
2012-11-7,79,74,71,66,64,60,76,69,63,30.33,30.22,25,20,37,0.00
2012-11-8,78,74,71,67,63,59,78,70,62,30.39,30.32,20,15,33,0.00
2012-11-9,79,74,71,65,62,59,73,66,57,30.39,30.29,26,18,39,0.00
2012-11-10,79,74,71,63,61,58,70,64,55,30.36,30.25,26,20,40,0.00
2012-11-11,78,74,70,64,62,59,75,66,59,30.37,30.27,27,21,41,0.00
2012-11-12,79,74,70,65,62,59,76,68,59,30.40,30.31,21,16,35,0.00
2012-11-13,79,74,69,63,61,59,73,66,56,30.41,30.32,23,15,38,0.00
2012-11-14,79,74,70,65,61,59,76,65,52,30.43,30.34,28,21,44,0.00
2012-11-15,78,73,69,63,61,57,78,66,56,30.42,30.33,24,18,40,0.00
2012-11-16,77,72,70,63,60,58,75,66,56,30.39,30.31,27,21,42,0.00
2012-11-17,77,73,70,63,61,58,70,67,58,30.40,30.29,28,22,44,0.00
2012-11-18,76,73,71,64,62,60,75,69,63,30.41,30.32,25,20,39,0.00
2012-11-19,78,73,71,65,63,60,78,71,63,30.40,30.31,23,19,37,0.00
2012-11-20,78,73,71,66,63,60,79,71,60,30.37,30.26,26,20,42,0.00
2012-11-21,77,73,70,66,64,61,80,73,60,30.32,30.22,19,15,28,0.00
2012-11-22,74,72,70,69,66,61,85,80,69,30.29,30.19,15,9,23,0.00
2012-11-23,78,74,69,70,66,63,87,79,65,30.30,30.21,15,10,24,0.00
2012-11-24,80,74,70,67,66,62,85,76,63,30.30,30.21,15,10,27,0.00
2012-11-25,80,73,69,66,63,61,84,72,59,30.31,30.20,22,16,38,0.00
2012-11-26,71,70,68,62,60,58,77,73,69,30.36,30.24,21,12,33,0.00
2012-11-27,78,72,68,60,58,55,74,62,47,30.39,30.29,21,16,38,0.00
2012-11-28,76,71,65,62,59,55,72,66,58,30.38,30.28,17,12,30,0.00
2012-11-29,78,72,68,62,61,59,77,69,55,30.38,30.29,10,8,20,0.00
2012-11-30,78,72,67,65,62,60,80,72,58,30.38,30.29,9,6,16,0.00
2012-12-1,77,72,67,66,64,61,83,76,63,30.38,30.30,15,8,25,0.00
2012-12-2,77,73,70,68,64,61,85,75,64,30.39,30.20,10,6,30,0.00
2012-12-3,80,75,71,74,69,64,90,82,71,30.32,30.24,10,6,19,0.00
2012-12-4,81,75,70,72,68,66,91,80,64,30.35,30.28,18,6,33,0.00
2012-12-5,76,74,72,70,66,-100,84,79,72,30.42,30.29,24,12,38,0.00
2012-12-6,78,72,71,66,63,-100,80,74,65,30.32,30.17,24,21,42,0.00
2012-12-7,78,73,70,67,64,62,83,74,63,30.32,30.19,25,13,37,0.00
2012-12-8,77,73,70,67,65,63,84,78,63,30.29,30.20,20,17,34,0.00
2012-12-9,77,73,69,66,64,61,80,74,68,30.28,30.15,30,24,46,0.00
2012-12-10,77,74,72,63,62,59,73,67,61,30.33,30.23,30,27,47,0.00
2012-12-11,76,72,70,63,61,58,73,69,61,30.38,30.28,29,25,48,0.00
2012-12-12,76,72,69,63,61,58,77,69,61,30.38,30.30,30,25,50,0.00
2012-12-13,76,72,70,64,61,57,76,69,63,30.41,30.32,31,26,52,0.00
2012-12-14,76,72,68,64,61,56,84,69,56,30.42,30.34,32,27,49,0.00
2012-12-15,76,72,68,65,62,60,83,72,60,30.42,30.31,31,26,51,0.00
2012-12-16,76,72,69,65,62,59,83,73,58,30.39,30.27,33,27,54,0.00
2012-12-17,76,71,67,66,62,59,85,75,64,30.39,30.30,32,25,51,0.00
2012-12-18,77,72,69,64,61,58,80,68,56,30.37,30.29,36,28,55,0.00
2012-12-19,74,71,69,65,63,61,80,76,72,30.33,30.25,32,25,57,0.00
2012-12-20,75,71,68,64,61,58,80,71,64,30.34,30.24,30,24,47,0.00
2012-12-21,75,71,68,60,59,55,74,65,59,30.35,30.25,29,24,52,0.00
2012-12-22,76,70,66,62,59,56,78,67,58,30.36,30.24,26,21,43,0.00
2012-12-23,76,71,66,62,60,57,77,68,59,30.36,30.24,20,15,30,0.00
2012-12-24,77,71,66,66,62,58,80,74,66,30.36,30.22,20,10,30,0.00
2012-12-25,76,71,68,68,64,60,90,80,71,30.36,30.29,24,20,40,0.00
2012-12-26,76,71,69,63,61,58,76,70,63,30.36,30.24,28,21,43,0.00
2012-12-27,76,71,68,62,61,59,75,69,62,30.35,30.22,23,20,35,0.00
2012-12-28,76,71,68,64,62,60,80,73,61,30.31,30.22,15,12,24,0.00
2012-12-29,78,72,68,65,63,61,81,74,60,30.35,30.24,22,14,34,0.00
2012-12-30,73,71,69,69,65,62,90,82,74,30.35,30.23,23,13,37,0.00
2012-12-31,78,71,67,70,65,63,90,81,69,30.39,30.29,8,4,17,0.00
2013-1-1,75,70,68,68,64,63,88,81,71,30.40,30.29,15,10,30,0.00